Weather at Al Ain International Airport

Public forecast

Using degrees Celsius for public forecast. Weather courtesy of forecast.io.

Current aviation weather report (METAR) for Al Ain International Airport

Report is more than 6 hours old.

2022/11/14 15:00 (retrieved 2 years ago)

OMAL 141500Z 32008KT CAVOK 28/15 Q1016 NOSIG

Aviation forecast (TAF) for Al Ain International Airport

Forecast is more than 12 hours old.

2023/02/22 18:07 (retrieved 1 year ago)

TAF OMAL 221700Z 2218/2400 33005KT 8000 NSC BECMG 2220/2222 06005KT BECMG 2307/2309 33010KT BECMG 2316/2318 06005KT